Time;durP1;ratioP1;P1;durP2;ratioP2;P2;SDS_P1;SDS_P2;PMS_P1;PMS_P2;Temp;Humidity;BMP_temperature;BMP_pressure;BME280_temperature;BME280_humidity;BME280_pressure;Samples;Min_cycle;Max_cycle;Signal;HPM_P1;HPM_P2
2023/08/19 00:16:45;;;;;;;3.03;2.58;;;22.80;73.40;;;;;;4915094;29;20184;-58
2023/08/19 00:19:43;;;;;;;3.80;2.60;;;22.80;73.40;;;;;;4913308;29;20221;-59
2023/08/19 00:22:13;;;;;;;3.17;2.40;;;22.80;74.20;;;;;;4910330;29;20208;-56
2023/08/19 00:27:32;;;;;;;3.53;2.60;;;22.80;73.40;;;;;;4912448;29;20212;-59
2023/08/19 00:29:59;;;;;;;3.17;2.40;;;22.80;73.40;;;;;;4913512;29;20232;-59
2023/08/19 00:38:40;;;;;;;3.65;2.33;;;22.80;73.20;;;;;;4917558;28;20201;-58
2023/08/19 00:44:34;;;;;;;2.97;2.17;;;22.80;73.20;;;;;;4973978;28;20226;-62
2023/08/19 01:02:59;;;;;;;5.68;2.70;;;22.70;73.00;;;;;;4822669;29;20260;-57
2023/08/19 02:02:24;;;;;;;4.90;2.08;;;22.70;73.00;;;;;;4952334;29;20243;-58
2023/08/19 02:26:27;;;;;;;4.25;1.95;;;22.60;72.90;;;;;;4953671;29;20239;-61
2023/08/19 02:42:21;;;;;;;;;;;;;;;;;;;;;
2023/08/19 02:58:47;;;;;;;4.93;1.90;;;22.60;72.70;;;;;;4990499;28;20234;-61
2023/08/19 03:01:20;;;;;;;4.35;2.03;;;22.60;72.70;;;;;;4971569;28;20194;-59
2023/08/19 03:03:48;;;;;;;3.13;1.90;;;22.50;72.60;;;;;;4971431;28;20223;-56
2023/08/19 03:06:16;;;;;;;6.72;2.88;;;22.50;73.40;;;;;;4971490;28;20195;-58
2023/08/19 03:08:43;;;;;;;3.97;2.00;;;22.50;72.50;;;;;;4971558;28;20269;-60
2023/08/19 03:11:10;;;;;;;6.22;2.20;;;22.50;72.50;;;;;;4971581;28;20223;-59
2023/08/19 03:13:39;;;;;;;5.85;2.25;;;22.50;72.50;;;;;;4970657;28;20202;-58
2023/08/19 03:16:08;;;;;;;6.72;1.80;;;22.50;72.40;;;;;;4971504;28;20314;-56
2023/08/19 03:18:58;;;;;;;4.97;2.20;;;22.50;72.30;;;;;;4971372;28;20201;-58
2023/08/19 03:40:24;;;;;;;6.85;2.00;;;22.50;72.30;;;;;;5012682;28;20231;-60
2023/08/19 03:42:54;;;;;;;5.38;2.33;;;22.50;72.20;;;;;;5012258;28;20204;-57
2023/08/19 03:48:06;;;;;;;6.35;1.95;;;22.50;72.20;;;;;;5010688;28;20258;-58
2023/08/19 03:50:44;;;;;;;6.03;2.15;;;22.50;72.10;;;;;;5012695;28;20216;-61
2023/08/19 03:53:14;;;;;;;7.45;2.00;;;22.50;72.10;;;;;;5011903;28;20507;-59
2023/08/19 03:58:28;;;;;;;4.93;1.83;;;22.50;72.00;;;;;;5009945;28;20286;-59
2023/08/19 04:04:25;;;;;;;3.05;1.45;;;22.40;71.90;;;;;;4951721;28;20725;-62
2023/08/19 04:06:54;;;;;;;4.22;2.00;;;22.50;71.90;;;;;;4951841;29;20206;-62
2023/08/19 04:09:32;;;;;;;7.43;2.00;;;22.40;71.80;;;;;;4953656;28;20223;-63
2023/08/19 04:11:59;;;;;;;4.47;1.90;;;22.50;71.80;;;;;;4955438;29;20191;-61
2023/08/19 04:17:44;;;;;;;5.68;2.05;;;22.50;71.80;;;;;;4879874;29;20764;-63
2023/08/19 04:23:36;;;;;;;7.90;1.85;;;22.40;71.70;;;;;;4935270;29;20279;-61
2023/08/19 04:35:45;;;;;;;7.85;1.90;;;22.40;71.50;;;;;;4873986;29;20222;-61
2023/08/19 04:38:49;;;;;;;3.75;1.70;;;22.40;71.50;;;;;;4879173;29;20465;-60
2023/08/19 04:41:20;;;;;;;4.90;1.67;;;22.40;71.40;;;;;;4888239;29;20313;-63
2023/08/19 04:51:20;;;;;;;4.10;1.65;;;22.40;71.40;;;;;;4880113;29;20262;-58
2023/08/19 04:53:54;;;;;;;5.25;1.90;;;22.40;71.30;;;;;;4902753;29;20274;-62
2023/08/19 04:56:27;;;;;;;6.35;1.77;;;22.40;71.40;;;;;;4954792;28;20229;-61
2023/08/19 04:59:00;;;;;;;3.35;1.48;;;22.40;71.30;;;;;;4966451;28;20204;-63
2023/08/19 05:07:30;;;;;;;4.85;2.03;;;22.40;71.30;;;;;;4980658;28;20205;-58
2023/08/19 05:10:24;;;;;;;;;;;;;;;;;;;;;
2023/08/19 05:12:58;;;;;;;4.43;1.92;;;22.40;71.20;;;;;;5004902;28;20668;-58
2023/08/19 05:15:25;;;;;;;7.50;1.83;;;22.40;71.30;;;;;;5015028;28;20231;-61
2023/08/19 05:17:53;;;;;;;7.15;2.67;;;22.40;71.20;;;;;;5014846;28;20284;-59
2023/08/19 05:24:03;;;;;;;6.10;1.85;;;22.30;71.10;;;;;;4954237;29;20199;-62
2023/08/19 05:26:58;;;;;;;4.95;1.95;;;22.40;71.10;;;;;;4906970;29;20691;-59
2023/08/19 05:29:25;;;;;;;7.10;1.77;;;22.30;71.00;;;;;;4930468;29;20265;-60
2023/08/19 05:32:08;;;;;;;5.97;1.88;;;22.40;71.10;;;;;;4934758;29;20204;-58
2023/08/19 05:37:59;;;;;;;5.53;1.70;;;22.30;71.00;;;;;;4933996;29;20235;-59
2023/08/19 05:40:26;;;;;;;5.00;1.67;;;22.40;71.10;;;;;;4934766;29;20264;-60
2023/08/19 05:42:55;;;;;;;6.97;1.80;;;22.30;71.00;;;;;;4934828;29;20206;-60
2023/08/19 05:45:23;;;;;;;5.20;1.70;;;22.30;70.90;;;;;;4934577;29;20254;-61
2023/08/19 05:48:13;;;;;;;4.05;1.58;;;22.40;71.00;;;;;;4934562;29;20193;-60
2023/08/19 05:50:53;;;;;;;4.93;1.60;;;22.40;70.90;;;;;;4930300;29;20225;-59
2023/08/19 06:26:40;;;;;;;7.40;1.80;;;22.30;70.80;;;;;;4996259;28;20196;-60
2023/08/19 06:29:07;;;;;;;5.50;1.67;;;22.30;70.80;;;;;;5013823;28;20193;-58
2023/08/19 06:31:35;;;;;;;6.15;1.50;;;22.30;70.80;;;;;;5013254;28;20192;-58
2023/08/19 06:34:05;;;;;;;7.70;2.13;;;22.30;70.80;;;;;;5013614;28;20204;-61
2023/08/19 06:45:27;;;;;;;7.50;2.08;;;22.30;70.70;;;;;;4937638;28;20293;-59
2023/08/19 06:47:58;;;;;;;5.40;1.90;;;22.30;70.70;;;;;;4952807;29;20204;-58
2023/08/19 06:50:28;;;;;;;6.63;1.88;;;22.30;70.70;;;;;;4952600;28;20223;-57
2023/08/19 06:52:56;;;;;;;4.95;1.30;;;22.30;70.70;;;;;;4952439;29;20279;-60
2023/08/19 06:55:26;;;;;;;6.18;1.70;;;22.30;70.70;;;;;;4952542;28;20311;-59
2023/08/19 06:58:04;;;;;;;5.40;1.73;;;22.30;70.60;;;;;;4952356;29;20188;-58
2023/08/19 07:00:35;;;;;;;6.43;1.70;;;22.30;70.60;;;;;;4952497;28;20219;-59
2023/08/19 07:03:06;;;;;;;3.97;1.48;;;22.30;70.60;;;;;;4952368;29;20204;-59
2023/08/19 07:05:35;;;;;;;7.13;1.80;;;22.30;70.60;;;;;;4952273;28;20270;-58
2023/08/19 07:08:07;;;;;;;4.85;1.50;;;22.30;70.60;;;;;;4952237;29;20239;-59
2023/08/19 07:10:38;;;;;;;5.63;1.83;;;22.30;70.60;;;;;;4952404;28;20219;-58
2023/08/19 07:13:17;;;;;;;6.55;1.50;;;22.30;70.60;;;;;;4952101;29;20191;-60
2023/08/19 07:16:05;;;;;;;5.68;1.45;;;22.30;70.50;;;;;;4952188;28;20259;-61
2023/08/19 07:18:52;;;;;;;4.55;1.60;;;22.30;70.50;;;;;;4952098;29;20247;-57
2023/08/19 07:21:21;;;;;;;4.68;1.38;;;22.30;70.50;;;;;;4954195;28;20748;-58
2023/08/19 07:23:55;;;;;;;6.22;1.48;;;22.30;70.50;;;;;;5012843;28;20189;-59
2023/08/19 07:26:26;;;;;;;5.88;1.88;;;22.30;70.50;;;;;;5012826;28;20319;-58
2023/08/19 07:43:54;;;;;;;9.00;1.98;;;22.30;70.50;;;;;;4874597;29;20232;-59
2023/08/19 07:46:25;;;;;;;4.38;1.42;;;22.30;70.50;;;;;;4907826;29;20324;-58
2023/08/19 07:48:54;;;;;;;5.90;1.60;;;22.30;70.50;;;;;;4933714;28;20213;-60
2023/08/19 07:51:27;;;;;;;7.30;1.70;;;22.30;70.50;;;;;;4993055;28;20305;-58
2023/08/19 07:53:55;;;;;;;4.88;2.00;;;22.30;70.40;;;;;;4992869;28;20193;-58
2023/08/19 07:56:22;;;;;;;7.30;1.95;;;22.30;70.40;;;;;;4993091;28;20240;-60
2023/08/19 07:58:50;;;;;;;5.75;1.75;;;22.30;70.40;;;;;;4992881;28;20186;-60
2023/08/19 08:01:17;;;;;;;5.40;1.55;;;22.30;70.40;;;;;;4992981;28;20229;-60
2023/08/19 08:09:20;;;;;;;4.13;1.63;;;22.30;70.30;;;;;;4931154;28;20208;-61
2023/08/19 08:11:48;;;;;;;6.03;1.83;;;22.30;70.30;;;;;;4992327;28;20329;-60
2023/08/19 08:14:16;;;;;;;5.47;1.80;;;22.30;70.30;;;;;;4992401;28;20668;-61
2023/08/19 08:20:02;;;;;;;5.47;1.60;;;22.30;70.30;;;;;;4964666;28;20226;-61
2023/08/19 08:22:32;;;;;;;5.00;1.77;;;22.30;70.30;;;;;;4992235;28;20198;-60
2023/08/19 08:25:10;;;;;;;;;;;;;;;;;;;;;
2023/08/19 08:28:30;;;;;;;6.07;2.08;;;22.30;70.20;;;;;;4942178;28;20202;-58
2023/08/19 08:30:57;;;;;;;5.25;1.52;;;22.30;70.20;;;;;;4992728;28;20222;-63
2023/08/19 08:33:34;;;;;;;6.20;1.80;;;22.30;70.20;;;;;;4994699;28;20201;-59
2023/08/19 08:36:01;;;;;;;4.85;1.70;;;22.30;70.20;;;;;;4958429;28;20225;-59
2023/08/19 08:38:32;;;;;;;6.32;1.65;;;22.30;70.20;;;;;;5003125;28;20778;-55
2023/08/19 08:41:04;;;;;;;6.43;1.73;;;22.30;70.20;;;;;;5012162;28;20304;-62
2023/08/19 08:43:33;;;;;;;5.82;1.60;;;22.30;70.10;;;;;;5012161;28;20194;-58
2023/08/19 08:46:03;;;;;;;5.45;1.65;;;22.30;70.10;;;;;;5012111;28;20232;-57
2023/08/19 08:48:33;;;;;;;4.95;1.40;;;22.30;70.10;;;;;;5011984;28;20192;-59
2023/08/19 08:51:00;;;;;;;3.97;1.33;;;22.30;70.90;;;;;;5012013;28;20218;-57
2023/08/19 08:53:30;;;;;;;7.00;1.63;;;22.30;70.10;;;;;;5011718;28;20198;-57
2023/08/19 08:55:59;;;;;;;5.85;2.10;;;22.40;70.20;;;;;;5014730;28;20220;-59
2023/08/19 08:58:45;;;;;;;4.47;1.63;;;22.30;70.00;;;;;;5016050;28;20202;-59
2023/08/19 09:01:13;;;;;;;6.60;1.70;;;22.30;70.00;;;;;;5015557;28;20295;-57
2023/08/19 09:03:42;;;;;;;6.20;1.52;;;22.30;70.00;;;;;;5015143;28;20193;-61
2023/08/19 09:06:24;;;;;;;5.72;1.50;;;22.30;70.00;;;;;;5015350;28;20239;-58
2023/08/19 09:09:00;;;;;;;4.50;1.30;;;22.30;70.00;;;;;;4949011;28;20289;-59
2023/08/19 09:11:30;;;;;;;8.00;1.65;;;22.30;69.90;;;;;;5015329;28;20228;-59
2023/08/19 09:14:04;;;;;;;5.13;1.30;;;22.30;69.90;;;;;;5014884;28;20193;-60
2023/08/19 09:16:32;;;;;;;7.78;1.80;;;22.30;69.90;;;;;;5015034;28;20227;-59
2023/08/19 09:18:59;;;;;;;6.25;1.67;;;22.30;69.90;;;;;;5015125;28;20202;-57
2023/08/19 09:21:27;;;;;;;6.18;1.65;;;22.30;69.80;;;;;;5014813;28;20312;-59
2023/08/19 09:24:15;;;;;;;8.18;1.55;;;22.30;69.80;;;;;;5014661;28;20663;-59
2023/08/19 09:26:42;;;;;;;5.50;2.15;;;22.30;69.80;;;;;;5014748;28;20236;-58
2023/08/19 09:29:10;;;;;;;4.93;1.45;;;22.30;69.70;;;;;;5014597;28;20569;-58
2023/08/19 09:32:02;;;;;;;4.90;1.55;;;22.30;69.70;;;;;;4963969;28;20503;-59
2023/08/19 09:34:32;;;;;;;5.70;1.40;;;22.30;69.60;;;;;;5014352;28;20244;-59
2023/08/19 09:37:02;;;;;;;4.13;1.52;;;22.30;69.70;;;;;;5014707;28;20200;-60
2023/08/19 09:39:36;;;;;;;6.93;1.58;;;22.30;69.60;;;;;;5014131;28;20299;-58
2023/08/19 09:42:05;;;;;;;4.80;1.67;;;22.30;69.60;;;;;;5014616;28;20200;-60
2023/08/19 09:44:33;;;;;;;4.60;1.60;;;22.30;69.60;;;;;;5014580;28;20200;-61
2023/08/19 09:49:58;;;;;;;6.25;1.30;;;22.30;69.40;;;;;;4947839;28;20228;-59
2023/08/19 09:52:26;;;;;;;5.93;1.60;;;22.30;69.40;;;;;;5014483;28;20194;-57
2023/08/19 09:57:42;;;;;;;5.63;1.67;;;22.30;69.40;;;;;;5013166;28;20205;-59
2023/08/19 10:00:11;;;;;;;5.97;1.30;;;22.30;69.30;;;;;;5014302;28;20221;-59
2023/08/19 10:02:38;;;;;;;6.80;1.30;;;22.30;69.30;;;;;;5013945;28;20193;-59
2023/08/19 10:05:06;;;;;;;5.68;1.40;;;22.30;69.20;;;;;;5014486;28;20249;-61
2023/08/19 10:07:37;;;;;;;4.72;1.50;;;22.30;69.20;;;;;;5013400;28;20200;-58
2023/08/19 10:10:08;;;;;;;6.55;1.48;;;22.30;69.10;;;;;;5013795;28;20280;-58
2023/08/19 10:12:41;;;;;;;7.43;1.65;;;22.30;69.10;;;;;;5014017;28;20206;-58
2023/08/19 10:15:22;;;;;;;;;;;;;;;;;;;;;
2023/08/19 10:18:18;;;;;;;5.13;1.67;;;22.30;69.00;;;;;;4963435;28;20204;-58
2023/08/19 10:20:50;;;;;;;3.92;1.30;;;22.40;68.80;;;;;;4996969;28;20224;-57
2023/08/19 10:23:20;;;;;;;5.97;1.50;;;22.30;68.90;;;;;;5013951;28;20196;-57
2023/08/19 10:25:55;;;;;;;7.68;1.88;;;22.30;68.70;;;;;;5013776;28;20251;-56
2023/08/19 10:28:33;;;;;;;4.60;1.40;;;22.30;68.70;;;;;;5013792;28;20252;-58
2023/08/19 10:31:08;;;;;;;3.63;1.20;;;22.30;68.60;;;;;;5013449;28;20217;-60
2023/08/19 10:33:42;;;;;;;7.72;1.40;;;22.30;68.50;;;;;;5013420;28;20734;-57
2023/08/19 10:36:12;;;;;;;5.20;1.90;;;22.30;68.50;;;;;;5013456;28;20224;-57
2023/08/19 10:42:00;;;;;;;;;;;;;;;;;;;;;
2023/08/19 10:44:33;;;;;;;6.03;1.52;;;22.30;68.40;;;;;;4952654;29;20206;-61
2023/08/19 10:50:58;;;;;;;3.90;1.30;;;22.40;68.50;;;;;;4952507;29;20862;-60
2023/08/19 10:53:25;;;;;;;6.80;1.70;;;22.30;68.30;;;;;;4952487;28;20215;-59
2023/08/19 10:55:53;;;;;;;4.72;1.60;;;22.30;68.40;;;;;;4952530;29;20187;-57
2023/08/19 10:58:24;;;;;;;4.55;1.40;;;22.30;68.40;;;;;;4952336;28;20231;-59
2023/08/19 11:03:44;;;;;;;;;;;;;;;;;;;;;
2023/08/19 11:06:12;;;;;;;3.67;1.58;;;22.30;68.40;;;;;;4952333;29;20231;-56
2023/08/19 11:08:43;;;;;;;4.47;1.52;;;22.40;68.50;;;;;;4952383;28;20228;-58
2023/08/19 11:11:16;;;;;;;5.13;1.70;;;22.30;68.40;;;;;;4952247;29;20438;-57
2023/08/19 11:13:45;;;;;;;5.47;1.30;;;22.30;68.40;;;;;;4952325;28;20223;-59
2023/08/19 11:16:14;;;;;;;3.63;1.25;;;22.30;68.40;;;;;;4952169;29;20278;-54
2023/08/19 11:18:42;;;;;;;5.05;1.33;;;22.30;69.20;;;;;;4975936;28;20308;-59
2023/08/19 11:21:10;;;;;;;3.72;1.77;;;22.20;68.30;;;;;;5012888;28;20193;-58
2023/08/19 11:23:43;;;;;;;5.78;1.60;;;22.30;68.40;;;;;;5013010;28;20220;-58
2023/08/19 11:26:11;;;;;;;4.45;1.40;;;22.30;68.40;;;;;;5012773;28;20307;-60
2023/08/19 11:28:53;;;;;;;4.70;1.58;;;22.40;68.50;;;;;;5012593;28;20221;-58
2023/08/19 11:31:23;;;;;;;5.75;1.40;;;22.30;68.40;;;;;;5010305;28;20283;-59
2023/08/19 11:33:56;;;;;;;3.78;1.20;;;22.40;68.50;;;;;;5012836;28;20216;-55
2023/08/19 11:36:46;;;;;;;3.97;1.58;;;22.30;68.40;;;;;;5012706;28;20192;-59
2023/08/19 11:39:14;;;;;;;4.75;1.40;;;22.40;68.50;;;;;;5001064;28;20594;-57
2023/08/19 11:41:48;;;;;;;5.03;1.40;;;22.40;68.50;;;;;;5012923;28;20197;-59
2023/08/19 11:44:22;;;;;;;5.60;1.50;;;22.30;68.30;;;;;;5012763;28;20216;-59
2023/08/19 11:46:54;;;;;;;6.35;1.42;;;22.40;68.50;;;;;;5012432;28;20304;-57
2023/08/19 11:52:53;;;;;;;5.20;1.42;;;22.40;68.50;;;;;;5012187;28;20204;-58
2023/08/19 11:55:20;;;;;;;5.40;1.70;;;22.40;68.40;;;;;;5012570;28;20185;-56
2023/08/19 11:57:49;;;;;;;5.50;1.40;;;22.40;68.50;;;;;;5012125;28;20296;-60
2023/08/19 12:00:17;;;;;;;4.03;1.30;;;22.30;68.30;;;;;;5012405;28;20197;-58
2023/08/19 12:02:46;;;;;;;4.57;1.30;;;22.30;68.20;;;;;;5012072;28;20227;-58
2023/08/19 12:05:23;;;;;;;3.67;1.35;;;22.40;68.40;;;;;;5012417;28;20219;-55
2023/08/19 12:07:50;;;;;;;5.60;1.40;;;22.40;68.50;;;;;;5012106;28;20224;-56
2023/08/19 12:10:18;;;;;;;5.47;1.42;;;22.40;68.40;;;;;;5012647;28;20268;-58
2023/08/19 12:12:58;;;;;;;2.65;1.30;;;22.40;68.40;;;;;;5012251;28;20193;-59
2023/08/19 12:15:27;;;;;;;4.65;1.20;;;22.40;68.20;;;;;;5012000;28;20652;-58
2023/08/19 12:17:57;;;;;;;3.85;1.45;;;22.40;68.30;;;;;;5012346;28;20220;-57
2023/08/19 12:20:24;;;;;;;3.72;1.23;;;22.40;68.00;;;;;;5011794;28;20208;-58
2023/08/19 12:22:51;;;;;;;5.93;1.30;;;22.40;68.10;;;;;;5012426;28;20213;-56
2023/08/19 12:28:01;;;;;;;4.20;1.33;;;22.40;68.10;;;;;;5010567;28;20220;-59
2023/08/19 12:30:29;;;;;;;3.05;1.40;;;22.40;68.80;;;;;;5014299;28;20280;-58
2023/08/19 12:32:57;;;;;;;3.78;1.48;;;22.40;68.00;;;;;;5015796;28;20217;-58
2023/08/19 12:35:24;;;;;;;4.18;1.33;;;22.40;68.00;;;;;;5015973;28;20200;-59
2023/08/19 12:37:51;;;;;;;5.05;1.50;;;22.40;68.00;;;;;;5015595;28;20357;-57
2023/08/19 12:40:19;;;;;;;2.72;1.05;;;22.40;68.00;;;;;;5016083;28;20201;-57
2023/08/19 12:42:47;;;;;;;3.78;1.30;;;22.30;67.80;;;;;;5015733;28;20272;-58
2023/08/19 12:45:14;;;;;;;3.92;1.60;;;22.40;67.90;;;;;;5015755;28;20272;-56
2023/08/19 12:47:43;;;;;;;6.25;1.60;;;22.40;67.90;;;;;;5015663;28;20221;-58
2023/08/19 12:50:11;;;;;;;4.50;1.17;;;22.40;67.90;;;;;;5015609;28;20249;-60
2023/08/19 12:52:38;;;;;;;2.88;1.30;;;22.40;68.00;;;;;;5015522;28;20201;-58
2023/08/19 12:55:07;;;;;;;2.17;1.30;;;22.40;67.80;;;;;;5015294;28;20702;-56
2023/08/19 12:57:34;;;;;;;2.70;1.27;;;22.40;67.80;;;;;;5015149;28;20735;-57
2023/08/19 13:02:44;;;;;;;3.92;1.20;;;22.40;67.80;;;;;;4954538;28;20199;-55
2023/08/19 13:05:12;;;;;;;4.32;1.25;;;22.40;67.70;;;;;;5015320;28;20198;-57
2023/08/19 13:07:40;;;;;;;6.63;1.50;;;22.40;67.70;;;;;;5015181;28;20221;-59
2023/08/19 13:10:09;;;;;;;6.35;1.40;;;22.40;67.70;;;;;;5014957;28;20198;-56
2023/08/19 13:12:36;;;;;;;3.20;1.17;;;22.40;67.70;;;;;;5015173;28;20211;-58
2023/08/19 13:15:25;;;;;;;2.47;1.33;;;22.40;67.70;;;;;;5015211;28;20190;-58
2023/08/19 13:17:59;;;;;;;2.78;1.20;;;22.40;67.60;;;;;;5008911;28;20228;-58
2023/08/19 13:20:27;;;;;;;4.30;1.52;;;22.40;67.70;;;;;;5015094;28;20243;-58
2023/08/19 13:22:54;;;;;;;5.65;1.23;;;22.50;67.80;;;;;;5014979;28;20307;-61
2023/08/19 13:25:21;;;;;;;3.47;1.40;;;22.40;67.70;;;;;;5014793;28;20730;-56
2023/08/19 13:27:49;;;;;;;3.47;1.17;;;22.40;67.60;;;;;;5014522;28;20699;-55
2023/08/19 13:30:17;;;;;;;2.65;1.20;;;22.40;67.60;;;;;;5014921;28;20193;-57
2023/08/19 13:32:44;;;;;;;4.03;1.42;;;22.40;67.60;;;;;;5014775;28;20189;-56
2023/08/19 13:35:14;;;;;;;4.05;1.27;;;22.40;67.60;;;;;;5014477;28;20716;-56
2023/08/19 13:37:41;;;;;;;5.20;1.25;;;22.40;67.50;;;;;;5014268;28;20240;-58
2023/08/19 13:40:09;;;;;;;3.80;1.27;;;22.40;67.50;;;;;;5014722;28;20213;-61
2023/08/19 13:46:02;;;;;;;3.30;1.40;;;22.40;67.50;;;;;;5014506;28;20216;-59
2023/08/19 13:48:29;;;;;;;6.15;1.30;;;22.40;67.40;;;;;;5014543;28;20228;-59
2023/08/19 13:51:16;;;;;;;3.67;1.33;;;22.40;67.50;;;;;;5014509;28;20193;-59
2023/08/19 13:53:43;;;;;;;3.70;1.58;;;22.40;67.30;;;;;;5013737;28;20236;-60
2023/08/19 13:56:11;;;;;;;3.38;1.33;;;22.50;67.50;;;;;;5014143;28;20193;-60
2023/08/19 13:58:39;;;;;;;2.28;1.13;;;22.50;67.50;;;;;;5014452;28;20223;-59
2023/08/19 14:01:07;;;;;;;4.47;1.33;;;22.50;68.20;;;;;;5014299;28;20196;-57
2023/08/19 14:03:36;;;;;;;3.95;1.30;;;22.50;68.20;;;;;;5014259;28;20249;-60
2023/08/19 14:06:05;;;;;;;2.40;1.20;;;22.40;67.10;;;;;;5014235;28;20189;-60
2023/08/19 14:08:36;;;;;;;4.85;1.30;;;22.50;67.20;;;;;;5014193;28;20227;-58
2023/08/19 14:11:03;;;;;;;4.47;1.40;;;22.50;67.20;;;;;;5014166;28;20193;-58
2023/08/19 14:13:31;;;;;;;3.38;1.17;;;22.50;67.00;;;;;;5014159;28;20240;-56
2023/08/19 14:18:39;;;;;;;2.47;0.90;;;22.50;67.20;;;;;;5014120;28;20220;-59
2023/08/19 14:21:07;;;;;;;3.30;1.10;;;22.50;67.10;;;;;;5013910;28;20555;-58
2023/08/19 14:23:37;;;;;;;2.53;1.30;;;22.50;67.10;;;;;;5013958;28;20292;-59
2023/08/19 14:26:05;;;;;;;5.13;1.25;;;22.50;67.10;;;;;;5013548;28;20189;-57
2023/08/19 14:28:37;;;;;;;4.55;1.90;;;22.50;67.00;;;;;;5013525;28;20496;-57
2023/08/19 14:31:04;;;;;;;5.72;1.58;;;22.50;67.10;;;;;;5013342;28;20189;-55
2023/08/19 14:33:31;;;;;;;6.45;1.38;;;22.50;67.10;;;;;;5014058;28;20304;-59
2023/08/19 14:35:59;;;;;;;3.85;1.30;;;22.50;67.00;;;;;;5013693;28;20205;-58
2023/08/19 14:38:26;;;;;;;4.53;1.30;;;22.50;67.00;;;;;;5013353;28;20233;-58
2023/08/19 14:40:54;;;;;;;3.22;1.23;;;22.50;67.10;;;;;;5013825;28;20197;-58
2023/08/19 14:43:21;;;;;;;6.63;1.45;;;22.50;67.00;;;;;;5013513;28;20305;-56
2023/08/19 14:45:49;;;;;;;3.05;1.50;;;22.50;67.00;;;;;;5013512;28;20196;-57
2023/08/19 14:48:16;;;;;;;2.70;1.05;;;22.50;67.00;;;;;;5013385;28;20239;-57
2023/08/19 14:50:43;;;;;;;5.28;1.20;;;22.50;66.90;;;;;;5013424;28;20189;-56
2023/08/19 14:53:10;;;;;;;2.95;1.00;;;22.50;66.90;;;;;;5013094;28;20217;-55
2023/08/19 14:55:38;;;;;;;3.03;1.02;;;22.50;66.90;;;;;;5013036;28;20722;-58
2023/08/19 14:58:06;;;;;;;3.90;1.25;;;22.50;66.90;;;;;;5013015;28;20263;-56
2023/08/19 15:00:33;;;;;;;4.38;1.27;;;22.50;66.80;;;;;;5013121;28;20197;-57
2023/08/19 15:03:00;;;;;;;3.30;1.50;;;22.50;66.80;;;;;;5013196;28;20288;-56
2023/08/19 15:05:27;;;;;;;4.35;1.35;;;22.50;66.70;;;;;;5012876;28;20639;-55
2023/08/19 15:07:54;;;;;;;1.25;0.88;;;22.50;66.70;;;;;;5013016;28;20267;-57
2023/08/19 15:10:23;;;;;;;4.15;1.50;;;22.50;66.60;;;;;;5012694;28;20284;-56
2023/08/19 15:12:50;;;;;;;2.72;1.13;;;22.50;66.60;;;;;;5012580;28;20280;-57
2023/08/19 15:15:19;;;;;;;3.00;1.20;;;22.50;66.50;;;;;;5012950;28;20200;-55
2023/08/19 15:17:46;;;;;;;2.53;1.02;;;22.50;66.50;;;;;;5012897;28;20307;-54
2023/08/19 15:20:13;;;;;;;2.70;1.30;;;22.50;66.40;;;;;;5012884;28;20199;-57
2023/08/19 15:22:40;;;;;;;3.08;1.42;;;22.50;66.40;;;;;;5012888;28;20273;-57
2023/08/19 15:25:09;;;;;;;6.82;1.10;;;22.50;66.40;;;;;;5013041;28;20343;-56
2023/08/19 15:27:37;;;;;;;3.70;1.30;;;22.50;66.50;;;;;;5012759;28;20228;-56
2023/08/19 15:30:06;;;;;;;2.92;1.33;;;22.50;66.40;;;;;;5012914;28;20216;-56
2023/08/19 15:32:34;;;;;;;4.38;1.52;;;22.60;66.60;;;;;;5012756;28;20228;-58
2023/08/19 15:35:01;;;;;;;2.08;1.00;;;22.60;66.70;;;;;;5012612;28;20574;-56
2023/08/19 15:37:28;;;;;;;6.65;1.30;;;22.50;66.50;;;;;;5012679;28;20245;-56
2023/08/19 15:39:55;;;;;;;2.60;1.00;;;22.50;66.50;;;;;;5012886;28;20272;-56
2023/08/19 15:42:22;;;;;;;3.50;1.42;;;22.60;66.60;;;;;;5012840;28;20201;-58
2023/08/19 15:44:49;;;;;;;3.55;1.30;;;22.60;66.60;;;;;;5012579;28;20587;-55
2023/08/19 15:47:16;;;;;;;4.38;1.40;;;22.60;66.50;;;;;;5012546;28;20223;-55
2023/08/19 15:49:44;;;;;;;3.72;1.63;;;22.60;66.60;;;;;;5012763;28;20227;-57
2023/08/19 15:52:10;;;;;;;6.43;1.45;;;22.60;66.60;;;;;;5012567;28;20248;-56
2023/08/19 15:54:37;;;;;;;5.68;1.55;;;22.60;66.60;;;;;;5012428;28;20587;-58
2023/08/19 15:57:04;;;;;;;2.13;1.15;;;22.60;66.60;;;;;;5012586;28;20203;-58
2023/08/19 15:59:31;;;;;;;6.13;1.30;;;22.60;66.70;;;;;;5012334;28;20586;-54
2023/08/19 16:01:58;;;;;;;5.65;1.35;;;22.60;66.50;;;;;;5012453;28;20232;-56
2023/08/19 16:04:25;;;;;;;4.10;1.40;;;22.70;66.70;;;;;;5013079;28;20227;-56
2023/08/19 16:06:53;;;;;;;4.35;1.38;;;22.60;66.50;;;;;;5016075;28;20193;-60
2023/08/19 16:09:20;;;;;;;5.05;1.20;;;22.70;66.60;;;;;;5016511;28;20216;-63
2023/08/19 16:11:47;;;;;;;5.68;1.48;;;22.60;66.50;;;;;;5016336;28;20244;-54
2023/08/19 16:14:14;;;;;;;5.05;1.27;;;22.70;66.50;;;;;;5016495;28;20224;-64
2023/08/19 16:16:41;;;;;;;6.10;1.60;;;22.60;66.40;;;;;;5016314;28;20196;-65
2023/08/19 16:19:07;;;;;;;8.30;1.40;;;22.70;66.50;;;;;;5016030;28;20235;-63
2023/08/19 16:21:34;;;;;;;4.03;1.63;;;22.60;66.50;;;;;;5016206;28;20186;-62
2023/08/19 16:24:03;;;;;;;4.07;1.33;;;22.70;66.50;;;;;;5016278;28;20216;-64
2023/08/19 16:26:30;;;;;;;4.40;1.40;;;22.70;66.50;;;;;;5016373;28;20197;-64
2023/08/19 16:28:57;;;;;;;3.60;1.30;;;22.70;66.50;;;;;;5016071;28;20323;-64
2023/08/19 16:31:24;;;;;;;5.75;1.50;;;22.70;66.50;;;;;;5015952;28;20217;-63
2023/08/19 16:33:51;;;;;;;3.70;1.38;;;22.70;66.40;;;;;;5016057;28;20312;-64
2023/08/19 16:36:18;;;;;;;6.00;1.50;;;22.70;66.50;;;;;;5015609;28;20284;-62
2023/08/19 16:38:45;;;;;;;6.63;1.30;;;22.70;66.40;;;;;;5015646;28;20243;-63
2023/08/19 16:41:14;;;;;;;5.00;1.85;;;22.70;66.40;;;;;;5016082;28;20201;-62
2023/08/19 16:43:41;;;;;;;6.43;1.80;;;22.70;66.40;;;;;;5015863;28;20225;-62
2023/08/19 16:46:08;;;;;;;6.05;1.20;;;22.80;66.50;;;;;;5015824;28;20217;-62
2023/08/19 16:48:35;;;;;;;4.55;1.50;;;22.70;66.40;;;;;;5015623;28;20637;-65
2023/08/19 16:51:04;;;;;;;4.50;1.40;;;22.70;66.30;;;;;;5015591;28;20244;-55
2023/08/19 16:53:31;;;;;;;6.55;1.38;;;22.80;66.50;;;;;;5015635;28;20303;-63
2023/08/19 16:55:59;;;;;;;5.80;1.40;;;22.70;66.30;;;;;;5015575;28;20189;-55
2023/08/19 16:58:28;;;;;;;3.22;1.20;;;22.80;66.50;;;;;;5015594;28;20228;-62
2023/08/19 17:00:57;;;;;;;5.25;1.60;;;22.80;66.40;;;;;;5015153;28;20714;-64
2023/08/19 17:03:24;;;;;;;4.50;1.60;;;22.80;66.40;;;;;;5015473;28;20225;-63
2023/08/19 17:05:51;;;;;;;2.75;1.10;;;22.80;66.40;;;;;;5015412;28;20204;-64
2023/08/19 17:08:19;;;;;;;4.80;1.40;;;22.80;66.40;;;;;;5015319;28;20264;-65
2023/08/19 17:10:46;;;;;;;7.55;1.45;;;22.80;66.40;;;;;;5014981;28;20707;-64
2023/08/19 17:13:13;;;;;;;3.15;1.42;;;22.80;66.40;;;;;;5015292;28;20304;-56
2023/08/19 17:15:41;;;;;;;4.80;1.88;;;22.80;66.40;;;;;;5014746;28;20284;-62
2023/08/19 17:18:08;;;;;;;5.70;1.50;;;22.80;66.40;;;;;;5014846;28;20677;-61
2023/08/19 17:20:35;;;;;;;3.65;1.20;;;22.80;66.40;;;;;;5015084;28;20285;-64
2023/08/19 17:23:03;;;;;;;2.67;1.10;;;22.80;66.40;;;;;;5015022;28;20193;-63
2023/08/19 17:25:31;;;;;;;2.58;1.20;;;22.80;66.40;;;;;;5015074;28;20232;-62
2023/08/19 17:27:59;;;;;;;2.67;1.20;;;22.90;66.50;;;;;;5014855;28;20221;-64
2023/08/19 17:30:26;;;;;;;3.40;1.35;;;22.80;66.40;;;;;;5014637;28;20193;-62
2023/08/19 17:32:55;;;;;;;5.00;1.50;;;22.80;66.30;;;;;;5014928;28;20332;-65
2023/08/19 17:35:24;;;;;;;4.35;1.60;;;22.80;66.30;;;;;;5014797;28;20200;-64
2023/08/19 17:37:51;;;;;;;5.00;1.52;;;22.80;66.40;;;;;;5014360;28;20703;-64
2023/08/19 17:40:18;;;;;;;3.97;1.40;;;22.80;66.40;;;;;;5014654;28;20303;-64
2023/08/19 17:42:45;;;;;;;3.53;1.20;;;22.90;66.50;;;;;;5014752;28;20200;-57
2023/08/19 17:45:12;;;;;;;5.07;1.45;;;22.80;66.40;;;;;;5014902;28;20220;-64
2023/08/19 17:47:39;;;;;;;3.28;1.20;;;22.80;66.30;;;;;;5014557;28;20221;-64
2023/08/19 17:50:08;;;;;;;3.47;1.17;;;22.80;66.40;;;;;;5014725;28;20217;-64
2023/08/19 17:52:35;;;;;;;7.55;1.40;;;22.80;66.40;;;;;;5014183;28;20219;-65
2023/08/19 17:55:02;;;;;;;5.60;1.40;;;22.90;66.40;;;;;;5014355;28;20225;-63
2023/08/19 17:57:29;;;;;;;3.72;1.27;;;22.90;66.50;;;;;;5014435;28;20185;-62
2023/08/19 17:59:56;;;;;;;4.45;1.40;;;22.90;66.50;;;;;;5014611;28;20213;-64
2023/08/19 18:02:23;;;;;;;7.68;1.60;;;22.90;66.50;;;;;;5014022;28;20561;-55
2023/08/19 18:04:50;;;;;;;6.75;1.50;;;22.90;66.50;;;;;;5014089;28;20220;-62
2023/08/19 18:07:19;;;;;;;6.10;1.20;;;22.90;66.40;;;;;;5014320;28;20276;-62
2023/08/19 18:09:46;;;;;;;5.28;1.15;;;22.90;66.40;;;;;;5014361;28;20220;-62
2023/08/19 18:12:12;;;;;;;3.70;1.30;;;22.90;66.40;;;;;;5013809;28;20196;-64
2023/08/19 18:14:39;;;;;;;4.80;1.30;;;22.90;66.40;;;;;;5014222;28;20216;-62
2023/08/19 18:17:06;;;;;;;3.00;1.08;;;22.90;66.40;;;;;;5015358;28;20638;-56
2023/08/19 18:19:35;;;;;;;5.10;1.30;;;22.90;66.40;;;;;;5014146;28;20221;-55